Time;durP1;ratioP1;P1;durP2;ratioP2;P2;SDS_P1;SDS_P2;PMS_P1;PMS_P2;Temp;Humidity;BMP_temperature;BMP_pressure;BME280_temperature;BME280_humidity;BME280_pressure;Samples;Min_cycle;Max_cycle;Signal;HPM_P1;HPM_P2
2023/04/02 00:02:48;;;;;;;3.08;0.70;;;;;;;6.98;59.41;93937.00;5093952;28;20071;-75
2023/04/02 00:05:18;;;;;;;1.70;0.80;;;;;;;7.10;59.76;93941.13;5089135;28;20060;-75
2023/04/02 00:07:47;;;;;;;2.20;0.80;;;;;;;7.19;60.50;93931.81;5095047;28;20035;-74
2023/04/02 00:10:28;;;;;;;1.45;0.70;;;;;;;7.13;59.12;93925.38;5110887;28;20028;-74
2023/04/02 00:13:06;;;;;;;1.70;0.70;;;;;;;7.11;58.88;93920.34;5095013;28;20043;-74
2023/04/02 00:15:32;;;;;;;1.23;0.60;;;;;;;7.20;61.18;93938.63;5093884;28;20055;-74
2023/04/02 00:17:58;;;;;;;1.48;0.80;;;;;;;7.27;57.66;93914.75;5076878;28;20107;-74
2023/04/02 00:20:24;;;;;;;1.35;0.50;;;;;;;7.07;61.60;93887.97;5076491;28;20024;-74
2023/04/02 00:22:49;;;;;;;2.47;0.80;;;;;;;7.20;60.79;93929.09;5110638;28;20078;-75
2023/04/02 00:25:15;;;;;;;2.33;0.73;;;;;;;7.21;58.98;93909.25;5094033;28;20032;-75
2023/04/02 00:27:41;;;;;;;1.77;0.90;;;;;;;7.20;59.58;93897.28;5076745;28;20028;-74
2023/04/02 00:30:07;;;;;;;2.17;0.90;;;;;;;7.23;61.09;93912.53;5076268;28;20031;-74
2023/04/02 00:32:34;;;;;;;1.23;0.77;;;;;;;7.15;62.00;93901.06;5060171;28;20028;-75
2023/04/02 00:35:00;;;;;;;1.65;0.90;;;;;;;7.02;61.54;93903.06;5076646;28;20043;-74
2023/04/02 00:37:37;;;;;;;1.42;0.88;;;;;;;6.85;61.53;93888.13;5093607;28;20032;-75
2023/04/02 00:40:08;;;;;;;1.60;0.80;;;;;;;6.86;61.52;93903.50;5077908;28;20039;-74
2023/04/02 00:42:34;;;;;;;;;;;;;;;6.99;60.70;93908.44;5077696;28;20024;-75
2023/04/02 00:45:00;;;;;;;2.42;1.05;;;;;;;6.93;61.79;93912.34;5092530;28;19923;-75
2023/04/02 00:47:36;;;;;;;3.63;1.17;;;;;;;6.90;62.93;93897.13;5076402;28;20020;-75
2023/04/02 00:50:32;;;;;;;1.85;0.63;;;;;;;6.94;58.37;93908.03;5060847;28;20040;-75
2023/04/02 00:52:57;;;;;;;0.70;0.50;;;;;;;7.07;57.36;93892.31;5078546;28;20036;-75
2023/04/02 00:55:26;;;;;;;1.10;0.45;;;;;;;6.84;57.50;93860.69;5075934;28;20085;-75
2023/04/02 00:57:51;;;;;;;3.78;2.00;;;;;;;6.99;58.73;93874.06;5067658;28;20079;-75
2023/04/02 01:00:26;;;;;;;3.28;1.65;;;;;;;7.00;60.82;93901.53;5070493;28;20501;-75
2023/04/02 01:03:15;;;;;;;2.85;1.67;;;;;;;6.95;61.76;93896.75;5071440;28;20385;-74
2023/04/02 01:05:44;;;;;;;3.20;2.08;;;;;;;6.38;61.14;93818.00;5071770;28;20118;-75
2023/04/02 01:08:18;;;;;;;2.60;1.80;;;;;;;6.89;61.51;93905.81;5038911;28;20032;-74
2023/04/02 01:11:10;;;;;;;3.92;2.35;;;;;;;6.75;62.33;93913.91;5071896;28;20036;-74
2023/04/02 01:13:37;;;;;;;3.25;1.70;;;;;;;6.78;62.24;93907.66;5061132;28;20044;-75
2023/04/02 01:16:29;;;;;;;2.13;1.35;;;;;;;6.02;60.57;93809.78;5055136;28;20039;-75
2023/04/02 01:19:05;;;;;;;1.90;1.17;;;;;;;6.62;60.95;93903.75;5051696;28;20135;-74
2023/04/02 01:21:53;;;;;;;1.65;0.90;;;;;;;6.75;60.64;93913.91;5055391;28;20041;-74
2023/04/02 01:24:18;;;;;;;1.70;1.00;;;;;;;6.68;61.95;93928.22;5073021;28;20028;-75
2023/04/02 01:26:59;;;;;;;1.70;0.90;;;;;;;6.36;63.11;93877.50;5072263;28;20086;-75
2023/04/02 01:29:38;;;;;;;2.63;1.73;;;;;;;6.62;62.82;93926.97;5087340;28;20032;-75
2023/04/02 01:32:05;;;;;;;4.25;1.77;;;;;;;6.51;62.62;93931.38;5092297;28;20063;-75
2023/04/02 01:34:32;;;;;;;2.35;1.58;;;;;;;6.38;62.97;93921.19;5075617;28;20049;-75
2023/04/02 01:37:21;;;;;;;2.95;1.75;;;;;;;6.33;63.25;93923.34;5075308;28;20024;-74
2023/04/02 01:39:56;;;;;;;2.35;1.42;;;;;;;6.31;63.68;93917.50;5075435;28;20032;-74
2023/04/02 01:42:28;;;;;;;3.28;1.60;;;;;;;6.24;64.62;93920.56;5091779;28;20036;-74
2023/04/02 01:45:02;;;;;;;4.45;2.30;;;;;;;6.21;64.94;93927.72;5093188;28;20077;-74
2023/04/02 01:47:28;;;;;;;3.17;1.77;;;;;;;6.14;65.47;93913.69;5075253;28;20413;-74
2023/04/02 01:50:23;;;;;;;2.65;1.80;;;;;;;6.15;65.23;93921.28;5058547;28;20119;-74
2023/04/02 01:52:53;;;;;;;2.70;1.45;;;;;;;6.01;66.34;93914.66;5093099;28;20111;-74
2023/04/02 01:55:24;;;;;;;3.53;1.50;;;;;;;6.00;66.50;93912.19;5058268;28;20050;-74
2023/04/02 01:57:50;;;;;;;2.60;1.80;;;;;;;6.01;67.13;93917.22;5091687;28;20032;-74
2023/04/02 02:00:16;;;;;;;4.97;2.90;;;;;;;5.94;67.64;93920.44;5091683;28;20110;-74
2023/04/02 02:02:41;;;;;;;3.00;1.60;;;;;;;5.77;66.44;93888.22;5074824;28;20038;-74
2023/04/02 02:05:12;;;;;;;7.03;2.95;;;;;;;5.97;66.89;93923.56;5091374;28;20111;-74
2023/04/02 02:07:37;;;;;;;5.27;3.23;;;;;;;5.81;67.20;93923.91;5074801;28;20097;-74
2023/04/02 02:10:03;;;;;;;6.60;2.95;;;;;;;5.73;67.19;93921.13;5092506;28;20025;-74
2023/04/02 02:12:30;;;;;;;5.97;3.20;;;;;;;5.59;67.71;93905.91;5074637;28;20111;-74
2023/04/02 02:14:55;;;;;;;6.93;4.55;;;;;;;5.70;68.00;93921.34;5090859;28;20036;-74
2023/04/02 02:17:26;;;;;;;6.05;3.78;;;;;;;5.46;69.01;93918.94;5074168;28;20020;-74
2023/04/02 02:19:53;;;;;;;4.85;3.00;;;;;;;5.14;67.63;93862.16;5074194;28;20032;-74
2023/04/02 02:22:44;;;;;;;5.32;3.33;;;;;;;5.29;68.08;93907.34;5074679;28;20522;-74
2023/04/02 02:25:13;;;;;;;6.43;2.90;;;;;;;5.28;68.81;93926.31;5059527;28;20032;-75
2023/04/02 02:28:06;;;;;;;4.47;2.35;;;;;;;4.96;69.43;93925.31;5074231;28;20040;-74
2023/04/02 02:30:36;;;;;;;4.95;2.60;;;;;;;4.81;69.70;93894.66;5092524;28;20529;-74
2023/04/02 02:33:13;;;;;;;3.95;2.42;;;;;;;4.89;69.60;93922.41;5124574;27;20036;-75
2023/04/02 02:35:57;;;;;;;5.70;3.50;;;;;;;4.92;69.34;93919.59;5091186;28;20024;-74
2023/04/02 02:38:31;;;;;;;5.45;3.60;;;;;;;4.69;69.50;93911.03;5074345;28;20046;-74
2023/04/02 02:41:00;;;;;;;5.95;4.25;;;;;;;4.41;70.58;93868.50;5057866;28;20518;-73
2023/04/02 02:43:26;;;;;;;8.15;4.47;;;;;;;4.76;70.51;93925.06;5074373;28;20028;-75
2023/04/02 02:45:52;;;;;;;8.00;4.88;;;;;;;4.81;70.56;93928.13;5090995;28;20032;-74
2023/04/02 02:48:19;;;;;;;6.15;4.30;;;;;;;4.61;70.82;93895.34;5057637;28;20035;-74
2023/04/02 02:50:44;;;;;;;6.70;4.13;;;;;;;4.64;71.13;93915.69;5074076;28;20028;-74
2023/04/02 02:53:18;;;;;;;6.22;4.28;;;;;;;4.47;71.39;93898.91;5057591;28;20089;-74
2023/04/02 02:55:44;;;;;;;4.75;3.13;;;;;;;4.54;71.23;93902.69;5092565;28;20024;-74
2023/04/02 02:58:18;;;;;;;5.53;3.58;;;;;;;4.45;72.35;93905.91;5057304;28;20035;-75
2023/04/02 03:00:43;;;;;;;4.70;3.60;;;;;;;4.60;72.18;93896.28;5073840;28;20028;-74
2023/04/02 03:03:31;;;;;;;6.15;3.88;;;;;;;4.62;72.55;93892.63;5056875;28;20035;-74
2023/04/02 03:06:07;;;;;;;9.38;4.53;;;;;;;4.68;71.95;93922.22;5073296;28;20055;-74
2023/04/02 03:08:41;;;;;;;7.45;5.07;;;;;;;4.38;72.07;93910.69;5074531;28;20119;-74
2023/04/02 03:11:25;;;;;;;5.63;3.45;;;;;;;4.37;72.37;93936.50;5091872;28;20024;-74
2023/04/02 03:13:51;;;;;;;6.93;4.63;;;;;;;3.64;73.42;93829.53;5090134;28;20032;-73
2023/04/02 03:16:33;;;;;;;6.03;4.32;;;;;;;4.40;73.50;93939.72;5073460;28;20038;-75
2023/04/02 03:19:06;;;;;;;5.45;3.80;;;;;;;4.20;72.72;93899.97;5073651;28;20507;-74
2023/04/02 03:21:48;;;;;;;6.80;3.95;;;;;;;4.40;73.17;93949.16;5090312;28;20038;-74
2023/04/02 03:24:41;;;;;;;6.25;4.30;;;;;;;4.40;73.13;93944.00;5059276;28;20032;-75
2023/04/02 03:27:27;;;;;;;5.18;3.50;;;;;;;4.47;72.68;93945.22;5090224;28;20520;-74
2023/04/02 03:30:23;;;;;;;6.40;3.70;;;;;;;4.47;72.63;93935.75;5090164;28;20123;-74
2023/04/02 03:32:50;;;;;;;6.07;3.42;;;;;;;4.50;72.30;93941.59;5091536;28;20028;-74
2023/04/02 03:35:31;;;;;;;3.88;2.60;;;;;;;4.50;72.66;93929.56;5073354;28;20032;-74
2023/04/02 03:38:12;;;;;;;4.32;1.90;;;;;;;4.23;72.29;93920.34;5090022;28;20028;-74
2023/04/02 03:40:42;;;;;;;22.23;11.45;;;;;;;4.22;73.42;93941.03;5058013;28;20094;-74
2023/04/02 03:43:18;;;;;;;15.65;10.25;;;;;;;4.33;73.38;93946.22;5073281;28;20024;-74
2023/04/02 03:45:47;;;;;;;11.32;7.72;;;;;;;3.93;73.78;93931.06;5057148;28;20059;-74
2023/04/02 03:48:32;;;;;;;11.68;7.35;;;;;;;3.91;74.45;93963.75;5073585;28;20028;-74
2023/04/02 03:51:19;;;;;;;7.80;5.30;;;;;;;4.07;73.28;93962.66;5074560;28;20039;-74
2023/04/02 03:53:45;;;;;;;8.55;5.75;;;;;;;4.00;73.15;93957.16;5068953;28;20113;-74
2023/04/02 03:56:25;;;;;;;8.40;5.32;;;;;;;3.90;73.74;93953.56;5056272;28;20024;-74
2023/04/02 03:59:14;;;;;;;6.00;4.50;;;;;;;3.91;74.17;93955.25;5078330;28;20020;-74
2023/04/02 04:02:02;;;;;;;6.63;4.10;;;;;;;3.86;74.04;93949.59;5090716;28;20477;-75
2023/04/02 04:04:28;;;;;;;6.05;3.40;;;;;;;3.91;73.55;93938.06;5052851;28;20221;-74
2023/04/02 04:06:55;;;;;;;9.23;5.75;;;;;;;4.01;73.24;93949.34;5052863;28;20057;-75
2023/04/02 04:09:34;;;;;;;5.97;4.25;;;;;;;3.31;73.65;93831.00;5053259;28;20036;-75
2023/04/02 04:12:23;;;;;;;5.03;2.75;;;;;;;4.10;73.02;93935.00;5052995;28;20491;-74
2023/04/02 04:14:54;;;;;;;4.70;3.22;;;;;;;4.13;72.70;93939.94;5052723;28;20549;-73
2023/04/02 04:18:00;;;;;;;6.55;3.70;;;;;;;4.12;73.08;93951.13;5073233;28;20514;-74
2023/04/02 04:20:35;;;;;;;3.63;2.20;;;;;;;4.06;73.42;93936.16;5089482;28;20040;-74
2023/04/02 04:23:24;;;;;;;3.92;2.90;;;;;;;4.17;72.85;93958.53;5089624;28;20132;-73
2023/04/02 04:26:08;;;;;;;5.72;4.13;;;;;;;4.07;72.52;93960.94;5073655;28;20513;-74
2023/04/02 04:28:47;;;;;;;6.95;5.43;;;;;;;3.54;74.43;93966.31;5058250;28;20036;-74
2023/04/02 04:31:33;;;;;;;7.82;5.95;;;;;;;3.11;75.73;93960.69;5089800;28;20028;-74
2023/04/02 04:34:03;;;;;;;7.32;4.43;;;;;;;3.26;76.40;93989.63;5074550;28;20029;-74
2023/04/02 04:36:32;;;;;;;7.93;3.80;;;;;;;2.70;75.81;93871.94;5073673;28;20021;-74
2023/04/02 04:38:59;;;;;;;5.28;3.63;;;;;;;3.59;75.72;93996.81;5073998;28;20086;-74
2023/04/02 04:41:30;;;;;;;6.38;3.88;;;;;;;3.69;75.67;93989.31;5072562;28;20024;-74
2023/04/02 04:44:14;;;;;;;6.20;3.72;;;;;;;3.73;75.48;93980.44;5075791;28;20509;-73
2023/04/02 04:46:40;;;;;;;4.65;2.80;;;;;;;3.74;74.48;93987.25;5087457;28;20119;-74
2023/04/02 04:49:29;;;;;;;6.75;2.67;;;;;;;3.80;74.24;93972.22;5089718;28;20565;-74
2023/04/02 04:52:00;;;;;;;3.60;2.35;;;;;;;3.84;74.30;93965.09;5068732;28;20468;-74
2023/04/02 04:54:26;;;;;;;3.33;2.08;;;;;;;3.86;74.07;93965.00;5071863;28;20032;-75
2023/04/02 04:56:55;;;;;;;3.08;1.85;;;;;;;3.97;73.93;93985.63;5072112;28;20048;-75
2023/04/02 04:59:24;;;;;;;3.30;1.92;;;;;;;4.18;72.84;93991.00;5072027;28;20032;-74
2023/04/02 05:02:04;;;;;;;5.25;3.53;;;;;;;5.26;70.70;93986.59;5070164;28;20032;-74
2023/04/02 05:04:37;;;;;;;2.47;1.80;;;;;;;6.02;66.72;93960.13;5088665;28;20028;-75
2023/04/02 05:07:15;;;;;;;2.22;1.63;;;;;;;6.78;63.70;93982.53;5071245;28;20052;-75
2023/04/02 05:10:01;;;;;;;2.45;1.58;;;;;;;6.70;61.92;93976.19;5088940;28;20120;-75
2023/04/02 05:12:42;;;;;;;2.03;1.45;;;;;;;7.74;60.82;93986.59;5088076;28;20038;-75
2023/04/02 05:15:21;;;;;;;2.65;1.75;;;;;;;8.87;57.67;93981.97;5071307;28;20505;-75
2023/04/02 05:18:09;;;;;;;2.88;1.70;;;;;;;10.52;51.48;93939.06;5070783;28;20112;-75
2023/04/02 05:20:40;;;;;;;2.60;2.20;;;;;;;11.91;48.96;93962.66;5058035;28;20048;-75
2023/04/02 05:23:19;;;;;;;3.13;1.30;;;;;;;11.55;49.05;93976.56;5072134;28;20061;-75
2023/04/02 05:26:10;;;;;;;3.85;1.88;;;;;;;12.52;47.38;93991.03;5051487;28;20067;-75
2023/04/02 05:28:50;;;;;;;2.28;1.73;;;;;;;11.50;48.71;93988.41;5087979;28;20213;-75
2023/04/02 05:31:22;;;;;;;6.72;4.43;;;;;;;11.45;49.30;93981.09;5084911;28;20044;-75
2023/04/02 05:33:47;;;;;;;6.40;3.55;;;;;;;11.11;50.23;93986.97;5088284;28;20039;-75
2023/04/02 05:36:28;;;;;;;7.25;4.05;;;;;;;9.85;52.98;93960.03;5056756;28;20695;-76
2023/04/02 05:38:53;;;;;;;9.32;4.90;;;;;;;9.19;55.15;93998.97;5071960;28;20107;-75
2023/04/02 05:41:26;;;;;;;48.17;18.50;;;;;;;8.81;55.78;93990.28;5070036;28;20031;-76
2023/04/02 05:43:58;;;;;;;61.13;23.52;;;;;;;8.72;56.76;93981.56;5088208;28;20051;-75
2023/04/02 05:46:26;;;;;;;9.13;4.72;;;;;;;8.74;58.05;94004.72;5086993;28;20517;-75
2023/04/02 05:48:55;;;;;;;15.98;6.97;;;;;;;8.86;58.28;94013.16;5070807;28;20526;-75
2023/04/02 05:51:24;;;;;;;15.63;6.85;;;;;;;8.85;58.59;94012.34;5069501;28;20418;-76
2023/04/02 05:53:55;;;;;;;6.75;3.80;;;;;;;8.80;59.40;93998.97;5072284;28;20025;-74
2023/04/02 05:56:31;;;;;;;21.73;9.07;;;;;;;8.97;58.81;94005.28;5073767;28;20119;-75
2023/04/02 05:59:03;;;;;;;18.05;8.73;;;;;;;9.08;57.46;94012.91;5090212;28;20028;-74
2023/04/02 06:01:48;;;;;;;4.05;3.10;;;;;;;9.26;54.52;94013.03;5073460;28;20126;-75
2023/04/02 06:04:30;;;;;;;3.33;2.00;;;;;;;9.34;53.80;94018.34;5071320;28;20124;-76
2023/04/02 06:07:11;;;;;;;5.85;4.47;;;;;;;9.54;54.13;94013.09;5084086;28;20623;-76
2023/04/02 06:09:46;;;;;;;4.47;3.22;;;;;;;9.81;54.40;94023.53;5081575;28;20056;-74
2023/04/02 06:12:40;;;;;;;3.45;2.28;;;;;;;9.86;53.53;94010.13;5087137;28;20320;-74
2023/04/02 06:15:12;;;;;;;10.85;6.15;;;;;;;10.17;52.86;94015.91;5082271;28;20028;-75
2023/04/02 06:17:47;;;;;;;6.10;3.95;;;;;;;10.47;52.26;94011.38;5071227;28;20394;-75
2023/04/02 06:20:14;;;;;;;4.18;2.05;;;;;;;10.72;51.17;94010.66;5066444;28;20020;-75
2023/04/02 06:22:40;;;;;;;4.93;3.33;;;;;;;10.90;51.13;94007.28;5070361;28;20466;-75
2023/04/02 06:25:26;;;;;;;6.45;4.07;;;;;;;11.17;50.91;94015.00;5054689;28;20040;-75
2023/04/02 06:27:51;;;;;;;4.43;2.80;;;;;;;11.37;49.43;94007.84;5072509;28;20057;-76
2023/04/02 06:30:24;;;;;;;4.10;1.50;;;;;;;11.62;48.59;94002.81;5068982;28;20040;-76
2023/04/02 06:32:49;;;;;;;4.82;2.35;;;;;;;11.73;48.84;94006.91;5087324;28;20038;-75
2023/04/02 06:35:15;;;;;;;7.53;5.32;;;;;;;11.85;48.52;94009.16;5089839;28;20036;-76
2023/04/02 06:37:42;;;;;;;5.47;3.60;;;;;;;11.91;48.25;93997.31;5073358;28;20024;-76
2023/04/02 06:40:23;;;;;;;4.20;2.70;;;;;;;11.74;48.53;94005.97;5108168;28;20047;-75
2023/04/02 06:42:51;;;;;;;;;;;;;;;12.11;48.42;94010.09;5110709;27;20062;-80
2023/04/02 06:45:22;;;;;;;7.90;3.85;;;;;;;12.07;48.48;93992.19;5073018;28;19921;-76
2023/04/02 06:47:48;;;;;;;3.40;1.88;;;;;;;12.51;47.51;94007.66;5073685;28;20035;-77
2023/04/02 06:50:22;;;;;;;6.30;2.90;;;;;;;12.72;46.99;94006.41;5091244;28;20024;-74
2023/04/02 06:53:04;;;;;;;5.43;2.67;;;;;;;12.97;44.76;94000.25;5089885;28;20034;-79
2023/04/02 06:55:45;;;;;;;2.72;1.50;;;;;;;13.32;44.19;94005.38;5073899;28;20040;-72
2023/04/02 06:58:11;;;;;;;3.30;2.25;;;;;;;13.47;44.08;94001.13;5090388;28;20032;-76
2023/04/02 07:00:38;;;;;;;6.85;3.80;;;;;;;13.63;44.44;94001.09;5091487;28;20042;-75
2023/04/02 07:03:07;;;;;;;3.30;2.40;;;;;;;13.76;44.49;94007.59;5089667;28;20059;-75
2023/04/02 07:05:33;;;;;;;3.22;1.92;;;;;;;13.93;43.72;94013.59;5090522;28;20113;-75
2023/04/02 07:07:58;;;;;;;2.78;2.10;;;;;;;13.91;43.42;94005.94;5090466;28;20028;-76
2023/04/02 07:10:24;;;;;;;3.30;2.00;;;;;;;14.11;42.94;94008.19;5072922;28;20031;-78
2023/04/02 07:12:49;;;;;;;3.03;1.92;;;;;;;13.96;43.42;94015.91;5090400;28;20054;-77
2023/04/02 07:15:16;;;;;;;5.28;2.42;;;;;;;13.53;43.88;93965.72;5090367;28;20081;-77
2023/04/02 07:17:42;;;;;;;4.75;1.98;;;;;;;13.91;43.00;94026.03;5089483;28;20111;-74
2023/04/02 07:20:26;;;;;;;3.70;2.42;;;;;;;14.11;43.31;94029.88;5094975;28;20071;-78
2023/04/02 07:22:51;;;;;;;4.20;2.20;;;;;;;14.13;43.42;94020.09;5090473;28;20028;-77
2023/04/02 07:25:20;;;;;;;3.85;2.03;;;;;;;13.86;42.95;93956.84;5072662;28;20102;-74
2023/04/02 07:27:45;;;;;;;2.85;2.10;;;;;;;14.05;42.63;93965.28;5069188;28;20031;-74
2023/04/02 07:30:11;;;;;;;4.80;2.10;;;;;;;14.39;41.24;93998.13;5088959;28;20510;-76
2023/04/02 07:32:42;;;;;;;6.22;2.25;;;;;;;14.01;41.80;93977.03;5090346;28;20028;-86
2023/04/02 07:35:09;;;;;;;3.58;2.00;;;;;;;13.49;42.73;93939.16;5058157;28;20028;-81
2023/04/02 07:37:35;;;;;;;4.88;2.35;;;;;;;14.48;41.98;94041.50;5088488;28;20477;-75
2023/04/02 07:40:01;;;;;;;5.50;2.40;;;;;;;14.55;42.16;94037.28;5090138;28;20035;-76
2023/04/02 07:42:26;;;;;;;2.92;2.13;;;;;;;14.70;41.58;94032.94;5089101;28;20441;-84
2023/04/02 07:44:52;;;;;;;4.03;2.50;;;;;;;14.39;41.01;94035.50;5089068;28;20047;-81
2023/04/02 07:47:17;;;;;;;8.32;3.40;;;;;;;14.05;41.53;93939.16;5090803;28;20035;-82
2023/04/02 07:49:43;;;;;;;6.68;4.35;;;;;;;13.70;40.89;93925.56;5090014;28;20470;-82
2023/04/02 07:52:08;;;;;;;4.70;3.25;;;;;;;14.70;41.83;94032.13;5090664;28;20051;-81
2023/04/02 07:54:34;;;;;;;5.47;3.22;;;;;;;14.72;41.55;94023.13;5072771;28;20028;-78
2023/04/02 07:57:00;;;;;;;4.32;2.58;;;;;;;14.13;42.22;94027.94;5089143;28;20032;-78
2023/04/02 07:59:26;;;;;;;5.00;2.58;;;;;;;14.55;41.94;94026.00;5090914;28;20113;-76
2023/04/02 08:01:51;;;;;;;5.55;2.80;;;;;;;14.72;41.48;94030.19;5090521;28;20028;-76
2023/04/02 08:04:19;;;;;;;6.10;3.25;;;;;;;14.74;41.15;94029.03;5091230;28;20032;-75
2023/04/02 08:06:44;;;;;;;7.35;2.70;;;;;;;14.59;41.14;94041.16;5072466;28;20112;-77
2023/04/02 08:09:10;;;;;;;7.25;3.03;;;;;;;14.46;41.95;94033.06;5090175;28;20024;-77
2023/04/02 08:11:36;;;;;;;3.83;2.42;;;;;;;14.34;41.60;94035.19;5100167;28;20044;-76
2023/04/02 08:14:01;;;;;;;5.78;3.42;;;;;;;14.08;42.39;94025.81;5092671;28;20020;-77
2023/04/02 08:16:27;;;;;;;8.00;3.13;;;;;;;14.06;42.62;94038.22;5092679;28;20082;-77
2023/04/02 08:18:53;;;;;;;4.90;2.95;;;;;;;13.71;43.32;94007.31;5090950;28;20528;-75
2023/04/02 08:21:18;;;;;;;6.53;3.47;;;;;;;14.05;42.60;94020.13;5090959;28;20032;-75
2023/04/02 08:23:44;;;;;;;4.32;2.60;;;;;;;14.09;42.82;94010.94;5090559;28;20036;-74
2023/04/02 08:26:10;;;;;;;5.18;2.80;;;;;;;14.44;42.95;94035.81;5090400;28;20032;-74
2023/04/02 08:28:35;;;;;;;4.03;2.70;;;;;;;14.52;42.45;94038.44;5054707;28;20032;-74
2023/04/02 08:31:01;;;;;;;2.83;1.65;;;;;;;14.30;39.47;94033.91;5094101;28;20490;-74
2023/04/02 08:33:26;;;;;;;3.72;1.60;;;;;;;13.91;38.50;93979.03;5094479;28;20437;-74
2023/04/02 08:35:52;;;;;;;4.82;1.52;;;;;;;14.29;38.59;94038.31;5094220;28;20036;-74
2023/04/02 08:38:18;;;;;;;2.75;1.10;;;;;;;13.40;40.43;93946.19;5093634;28;20420;-75
2023/04/02 08:40:46;;;;;;;2.92;1.30;;;;;;;13.68;39.66;93964.06;5090800;28;20032;-75
2023/04/02 08:43:27;;;;;;;3.08;1.63;;;;;;;14.27;38.90;94050.72;5074218;28;20034;-74
2023/04/02 08:46:11;;;;;;;2.38;1.17;;;;;;;14.25;40.12;94039.63;5092271;28;20044;-75
2023/04/02 08:48:37;;;;;;;3.35;2.13;;;;;;;14.09;39.46;94032.66;5091904;28;20036;-75
2023/04/02 08:51:04;;;;;;;6.38;3.00;;;;;;;13.50;39.03;93959.03;5057325;28;20064;-75
2023/04/02 08:53:32;;;;;;;4.05;2.42;;;;;;;13.83;38.94;93992.91;5057610;28;20044;-74
2023/04/02 08:56:07;;;;;;;4.18;1.77;;;;;;;14.27;39.92;94055.16;5057268;28;20040;-75
2023/04/02 08:58:32;;;;;;;3.05;1.75;;;;;;;14.39;38.98;94050.38;5092269;28;20024;-74
2023/04/02 09:01:00;;;;;;;3.78;1.65;;;;;;;14.12;38.22;93988.91;5093744;28;20032;-74
2023/04/02 09:03:39;;;;;;;2.40;1.30;;;;;;;14.49;38.48;94040.53;5076075;28;20089;-74
2023/04/02 09:06:08;;;;;;;3.20;1.38;;;;;;;14.03;38.09;93978.47;5092816;28;20055;-74
2023/04/02 09:08:34;;;;;;;4.88;1.70;;;;;;;14.42;38.23;94043.00;5092665;28;20109;-74
2023/04/02 09:11:10;;;;;;;3.65;1.65;;;;;;;14.53;38.83;94032.22;5083316;28;20609;-74
2023/04/02 09:13:37;;;;;;;5.75;2.40;;;;;;;14.11;38.29;93971.63;5053833;28;20483;-75
2023/04/02 09:16:11;;;;;;;7.03;2.28;;;;;;;13.99;37.78;93945.06;5070099;28;20384;-75
2023/04/02 09:18:37;;;;;;;5.90;1.77;;;;;;;14.67;37.44;94030.69;5072534;28;20039;-75
2023/04/02 09:21:27;;;;;;;3.78;1.60;;;;;;;14.13;37.45;93969.66;5070517;28;20084;-75
2023/04/02 09:23:52;;;;;;;3.25;1.27;;;;;;;14.21;39.18;93952.16;5071680;28;20032;-75
2023/04/02 09:26:19;;;;;;;4.22;1.58;;;;;;;14.90;37.25;94030.72;5072242;28;20104;-74
2023/04/02 09:28:44;;;;;;;4.15;1.50;;;;;;;14.87;38.56;93972.72;5073378;28;20028;-73
2023/04/02 09:31:17;;;;;;;6.43;1.70;;;;;;;14.90;35.83;93973.19;5071876;28;20114;-75
2023/04/02 09:33:47;;;;;;;16.30;3.95;;;;;;;15.01;36.81;93937.16;5072206;28;20094;-74
2023/04/02 09:36:36;;;;;;;2.40;1.15;;;;;;;15.15;35.49;93923.31;5055154;28;20040;-75
2023/04/02 09:39:11;;;;;;;2.00;0.88;;;;;;;15.38;34.58;93924.13;5073014;28;20115;-75
2023/04/02 09:41:37;;;;;;;5.07;0.98;;;;;;;15.62;33.08;93951.03;5073393;28;20032;-75
2023/04/02 09:44:35;;;;;;;1.92;0.80;;;;;;;16.18;31.91;94011.69;5073266;28;20082;-75
2023/04/02 09:47:03;;;;;;;2.47;1.00;;;;;;;16.15;33.67;93967.53;5082815;28;20489;-75
2023/04/02 09:49:30;;;;;;;1.50;0.80;;;;;;;15.88;31.84;93913.16;5072664;28;20029;-76
2023/04/02 09:52:17;;;;;;;1.50;0.85;;;;;;;16.74;31.68;94001.53;5071990;28;20036;-75
2023/04/02 09:54:43;;;;;;;1.75;0.80;;;;;;;16.83;32.74;93999.66;5072699;28;20036;-75
2023/04/02 09:57:26;;;;;;;1.52;0.70;;;;;;;17.13;33.02;94010.03;5071535;28;20025;-76
2023/04/02 10:00:21;;;;;;;1.60;0.90;;;;;;;17.35;31.67;94006.41;5072856;28;20070;-76
2023/04/02 10:03:00;;;;;;;2.63;1.50;;;;;;;16.93;32.25;93939.00;5074054;28;20098;-75
2023/04/02 10:05:26;;;;;;;2.05;0.88;;;;;;;16.87;33.07;93953.69;5072450;28;20037;-75
2023/04/02 10:07:52;;;;;;;1.02;0.60;;;;;;;16.58;31.67;93935.41;5072830;28;20376;-76
2023/04/02 10:10:38;;;;;;;1.48;0.75;;;;;;;16.98;32.24;94010.09;5054667;28;20431;-76
2023/04/02 10:13:24;;;;;;;3.65;0.85;;;;;;;17.01;33.20;94008.91;5072627;28;20029;-76
2023/04/02 10:15:59;;;;;;;3.67;0.90;;;;;;;16.23;31.49;93917.63;5071564;28;20021;-75
2023/04/02 10:18:42;;;;;;;3.33;0.90;;;;;;;16.69;32.45;94001.28;5071204;28;20028;-76
2023/04/02 10:21:10;;;;;;;1.42;0.60;;;;;;;16.56;31.19;94003.72;5072238;28;20441;-76
2023/04/02 10:23:35;;;;;;;1.60;1.13;;;;;;;15.97;31.31;93933.84;5071131;28;20494;-75
2023/04/02 10:26:20;;;;;;;2.05;0.75;;;;;;;15.91;32.52;93904.94;5072195;28;20043;-75
2023/04/02 10:28:45;;;;;;;1.83;0.70;;;;;;;16.60;32.93;93997.09;5072254;28;20029;-75
2023/04/02 10:31:11;;;;;;;1.52;0.73;;;;;;;16.84;31.23;93993.41;5070608;28;20033;-75
2023/04/02 10:33:37;;;;;;;0.82;0.60;;;;;;;16.54;30.95;93924.44;5072322;28;20028;-75
2023/04/02 10:36:08;;;;;;;1.13;0.70;;;;;;;17.11;31.81;94001.56;5070804;28;20029;-75
2023/04/02 10:38:43;;;;;;;2.60;0.73;;;;;;;16.54;31.11;93904.28;5071651;28;20046;-75
2023/04/02 10:41:31;;;;;;;1.48;0.70;;;;;;;17.28;31.03;94002.13;5071896;28;20107;-75
2023/04/02 10:44:15;;;;;;;1.00;0.63;;;;;;;17.35;30.55;93992.47;5071493;28;20064;-75
2023/04/02 10:46:49;;;;;;;0.90;0.60;;;;;;;17.36;31.94;94002.81;5071588;28;20036;-76
2023/04/02 10:49:35;;;;;;;1.60;0.75;;;;;;;17.45;31.50;93992.97;5070339;28;20102;-75
2023/04/02 10:52:03;;;;;;;2.47;1.10;;;;;;;17.53;30.44;94000.72;5081223;28;20522;-75
2023/04/02 10:54:38;;;;;;;2.63;1.50;;;;;;;17.60;30.04;93993.69;5089793;28;20103;-75
2023/04/02 10:57:34;;;;;;;9.85;5.53;;;;;;;17.71;30.33;93984.50;5119856;27;20028;-76
2023/04/02 11:00:24;;;;;;;2.83;1.67;;;;;;;17.83;30.48;93976.97;5087748;28;20118;-75
2023/04/02 11:03:08;;;;;;;2.05;0.85;;;;;;;17.58;31.92;93964.22;5082391;28;20300;-74
2023/04/02 11:05:46;;;;;;;1.92;0.80;;;;;;;17.42;32.15;93980.25;5090017;28;20063;-74
2023/04/02 11:08:30;;;;;;;1.23;0.77;;;;;;;17.05;32.43;93979.50;5091294;28;20386;-74
2023/04/02 11:11:15;;;;;;;1.33;0.80;;;;;;;16.89;33.30;93980.53;5089459;28;20561;-74
2023/04/02 11:13:49;;;;;;;1.73;0.90;;;;;;;16.90;33.53;93986.59;5090477;28;20035;-75
2023/04/02 11:16:14;;;;;;;1.65;0.82;;;;;;;16.40;33.63;93913.00;5087169;28;20418;-81
2023/04/02 11:18:40;;;;;;;2.15;0.80;;;;;;;16.37;33.03;93913.38;5088274;28;20032;-78
2023/04/02 11:21:38;;;;;;;1.77;0.77;;;;;;;16.84;33.11;93982.09;5088162;28;20036;-78
2023/04/02 11:24:04;;;;;;;1.52;0.90;;;;;;;16.79;33.58;93974.78;5084307;28;20047;-78
2023/04/02 11:26:47;;;;;;;1.58;0.80;;;;;;;16.22;33.79;93907.38;5101347;28;20036;-77
2023/04/02 11:29:26;;;;;;;1.73;0.90;;;;;;;16.00;33.52;93888.94;5087383;28;20464;-77
2023/04/02 11:32:20;;;;;;;4.22;1.65;;;;;;;16.46;33.91;93977.78;5070329;28;20036;-77
2023/04/02 11:34:45;;;;;;;1.70;0.93;;;;;;;16.37;33.96;93976.28;5084453;28;20120;-78
2023/04/02 11:37:30;;;;;;;2.50;1.10;;;;;;;16.28;34.05;93975.56;5087214;28;20063;-80
2023/04/02 11:40:15;;;;;;;1.95;0.80;;;;;;;16.02;34.67;93926.25;5084480;28;20032;-81
2023/04/02 11:42:47;;;;;;;1.95;1.00;;;;;;;16.29;34.52;93973.75;5066253;28;20140;-78
2023/04/02 11:45:42;;;;;;;3.55;1.20;;;;;;;16.26;34.29;93974.91;5086624;28;20111;-78
2023/04/02 11:48:16;;;;;;;1.67;0.80;;;;;;;16.28;35.31;93969.50;5080479;28;20118;-80
2023/04/02 11:50:43;;;;;;;2.15;1.00;;;;;;;16.18;34.77;93951.44;5089173;28;20036;-80
2023/04/02 11:53:14;;;;;;;1.80;0.80;;;;;;;16.39;34.63;93974.28;5069299;28;20028;-77
2023/04/02 11:55:43;;;;;;;5.63;2.72;;;;;;;16.24;34.91;93981.34;5087267;28;20553;-78
2023/04/02 11:58:42;;;;;;;3.90;1.20;;;;;;;16.20;34.92;93977.47;5084993;28;20077;-77
2023/04/02 12:01:14;;;;;;;1.77;0.80;;;;;;;16.09;34.25;93976.09;5083146;28;20032;-77
2023/04/02 12:04:11;;;;;;;1.58;0.77;;;;;;;16.27;34.52;93971.31;5086669;28;20238;-77
2023/04/02 12:06:53;;;;;;;1.77;0.80;;;;;;;15.65;34.28;93852.00;5082218;28;20116;-77
2023/04/02 12:09:22;;;;;;;2.90;0.90;;;;;;;16.32;34.29;93957.66;5085178;28;20030;-78